createdAt,value
2018-03-07T00:01:48.433Z,58.30
2018-03-07T00:04:15.156Z,59.10
2018-03-07T00:06:41.891Z,55.53
2018-03-07T00:09:08.638Z,53.57
2018-03-07T00:11:35.391Z,52.93
2018-03-07T00:14:02.165Z,53.80
2018-03-07T00:16:28.874Z,53.37
2018-03-07T00:18:55.599Z,55.47
2018-03-07T00:21:23.268Z,50.77
2018-03-07T00:23:50.008Z,52.07
2018-03-07T00:26:16.758Z,55.10
2018-03-07T00:28:43.474Z,55.83
2018-03-07T00:31:10.218Z,52.13
2018-03-07T00:33:36.947Z,50.87
2018-03-07T00:36:03.712Z,52.53
2018-03-07T00:38:30.504Z,47.50
2018-03-07T00:40:57.230Z,59.00
2018-03-07T00:43:23.982Z,53.83
2018-03-07T00:45:50.702Z,54.33
2018-03-07T00:48:17.422Z,58.42
2018-03-07T00:50:44.170Z,54.95
2018-03-07T00:53:10.938Z,51.20
2018-03-07T00:55:37.692Z,51.42
2018-03-07T00:58:04.433Z,51.00
2018-03-07T01:00:31.154Z,49.63
2018-03-07T01:02:57.919Z,54.50
2018-03-07T01:05:24.642Z,51.70
2018-03-07T01:07:51.426Z,49.30
2018-03-07T01:10:18.155Z,52.03
2018-03-07T01:12:44.894Z,51.17
2018-03-07T01:15:11.631Z,51.63
2018-03-07T01:17:38.366Z,55.57
2018-03-07T01:20:05.107Z,50.43
2018-03-07T01:22:31.859Z,48.20
2018-03-07T01:24:58.594Z,51.80
2018-03-07T01:27:25.306Z,56.53
2018-03-07T01:29:52.034Z,47.63
2018-03-07T01:32:18.750Z,56.50
2018-03-07T01:34:45.492Z,50.70
2018-03-07T01:37:12.231Z,52.27
2018-03-07T01:39:38.948Z,49.20
2018-03-07T01:42:05.708Z,51.63
2018-03-07T01:44:32.450Z,59.80
2018-03-07T01:46:59.165Z,47.20
2018-03-07T01:49:25.904Z,57.80
2018-03-07T01:51:58.374Z,58.03
2018-03-07T01:54:25.184Z,59.40
2018-03-07T01:56:51.894Z,58.03
2018-03-07T01:59:18.628Z,60.47
2018-03-07T02:01:45.373Z,58.80
2018-03-07T02:04:12.215Z,57.47
2018-03-07T02:06:38.970Z,55.03
2018-03-07T02:09:05.717Z,50.33
2018-03-07T02:11:32.447Z,55.97
2018-03-07T02:13:59.176Z,53.20
2018-03-07T02:16:25.970Z,50.40
2018-03-07T02:18:52.699Z,58.10
2018-03-07T02:21:19.431Z,53.03
2018-03-07T02:23:46.171Z,55.83
2018-03-07T02:26:12.956Z,54.17
2018-03-07T02:28:39.674Z,48.80
2018-03-07T02:31:06.412Z,45.80
2018-03-07T02:33:33.118Z,51.10
2018-03-07T02:35:59.864Z,49.03
2018-03-07T02:38:26.610Z,55.83
2018-03-07T02:40:53.328Z,51.80
2018-03-07T02:43:20.083Z,50.93
2018-03-07T02:45:46.802Z,55.27
2018-03-07T02:48:13.544Z,54.63
2018-03-07T02:50:40.276Z,51.13
2018-03-07T02:53:06.995Z,52.07
2018-03-07T02:55:33.744Z,50.47
2018-03-07T02:58:00.480Z,51.97
2018-03-07T03:00:27.226Z,56.40
2018-03-07T03:02:53.944Z,48.73
2018-03-07T03:05:20.772Z,52.53
2018-03-07T03:07:47.506Z,55.00
2018-03-07T03:10:14.280Z,52.42
2018-03-07T03:12:41.019Z,56.27
2018-03-07T03:15:07.734Z,58.67
2018-03-07T03:17:34.474Z,59.77
2018-03-07T03:20:01.209Z,55.20
2018-03-07T03:22:28.004Z,54.60
2018-03-07T03:24:54.726Z,50.97
2018-03-07T03:27:21.450Z,50.73
2018-03-07T03:29:48.241Z,45.93
2018-03-07T03:32:14.960Z,48.20
2018-03-07T03:34:41.725Z,54.77
2018-03-07T03:37:08.447Z,49.70
2018-03-07T03:39:35.206Z,50.30
2018-03-07T03:42:01.957Z,47.33
2018-03-07T03:44:28.698Z,49.67
2018-03-07T03:46:55.442Z,50.40
2018-03-07T03:49:22.169Z,55.00
2018-03-07T03:51:48.963Z,50.53
2018-03-07T03:54:15.713Z,48.90
2018-03-07T03:56:42.448Z,53.90
2018-03-07T03:59:09.207Z,51.75
2018-03-07T04:01:35.939Z,47.70
2018-03-07T04:04:02.723Z,54.20
2018-03-07T04:06:29.468Z,50.72
2018-03-07T04:08:56.211Z,58.22
2018-03-07T04:11:22.957Z,51.33
2018-03-07T04:13:49.698Z,51.42
2018-03-07T04:16:16.437Z,48.92
2018-03-07T04:18:43.178Z,53.07
2018-03-07T04:21:09.904Z,53.20
2018-03-07T04:23:36.639Z,56.97
2018-03-07T04:26:03.380Z,55.97
2018-03-07T04:28:30.125Z,47.88
2018-03-07T04:30:56.874Z,55.00
2018-03-07T04:33:23.610Z,51.05
2018-03-07T04:35:50.348Z,57.40
2018-03-07T04:38:17.075Z,54.90
2018-03-07T04:40:43.825Z,48.83
2018-03-07T04:43:10.602Z,55.80
2018-03-07T04:45:37.434Z,57.10
2018-03-07T04:48:04.190Z,55.03
2018-03-07T04:50:31.113Z,54.47
2018-03-07T04:52:57.879Z,57.50
2018-03-07T04:55:24.612Z,66.00
2018-03-07T04:57:51.363Z,54.30
2018-03-07T05:00:18.091Z,54.58
2018-03-07T05:02:45.003Z,57.13
2018-03-07T05:05:11.678Z,52.88
2018-03-07T05:07:38.400Z,54.08
2018-03-07T05:10:05.142Z,46.50
2018-03-07T05:12:31.871Z,55.80
2018-03-07T05:14:58.604Z,50.80
2018-03-07T05:17:25.321Z,56.70
2018-03-07T05:19:52.093Z,50.92
2018-03-07T05:22:18.833Z,56.25
2018-03-07T05:24:45.572Z,55.88
2018-03-07T05:27:12.314Z,53.15
2018-03-07T05:29:39.054Z,55.60
2018-03-07T05:32:05.816Z,49.80
2018-03-07T05:34:32.544Z,56.50
2018-03-07T05:36:59.293Z,53.10
2018-03-07T05:39:26.025Z,52.20
2018-03-07T05:41:52.762Z,52.60
2018-03-07T05:44:19.506Z,52.72
2018-03-07T05:46:46.217Z,57.30
2018-03-07T05:49:12.953Z,51.83
2018-03-07T05:51:39.730Z,43.28
2018-03-07T05:54:06.475Z,38.88
2018-03-07T05:56:33.197Z,44.83
2018-03-07T05:58:59.959Z,49.72
2018-03-07T06:01:26.746Z,50.58
2018-03-07T06:03:53.474Z,51.78
2018-03-07T06:06:20.220Z,53.40
2018-03-07T06:08:46.972Z,57.50
2018-03-07T06:11:13.746Z,55.17
2018-03-07T06:13:40.492Z,48.80
2018-03-07T06:16:07.256Z,61.47
2018-03-07T06:18:33.982Z,54.07
2018-03-07T06:21:00.731Z,54.30
2018-03-07T06:23:27.483Z,61.15
2018-03-07T06:25:54.209Z,54.83
2018-03-07T06:28:20.938Z,54.67
2018-03-07T06:30:47.773Z,49.97
2018-03-07T06:33:14.490Z,48.97
2018-03-07T06:35:41.261Z,59.20
2018-03-07T06:38:08.018Z,51.28
2018-03-07T06:40:34.761Z,59.08
2018-03-07T06:43:01.494Z,55.90
2018-03-07T06:45:28.207Z,67.70
2018-03-07T06:47:54.963Z,66.33
2018-03-07T06:50:21.715Z,69.17
2018-03-07T06:52:48.513Z,63.50
2018-03-07T06:55:15.219Z,62.37
2018-03-07T06:57:41.930Z,63.63
2018-03-07T07:00:08.669Z,72.87
2018-03-07T07:02:35.394Z,66.57
2018-03-07T07:05:02.641Z,59.42
2018-03-07T07:07:29.381Z,67.10
2018-03-07T07:09:56.154Z,78.07
2018-03-07T07:12:22.928Z,75.60
2018-03-07T07:14:49.663Z,81.57
2018-03-07T07:17:16.392Z,84.17
2018-03-07T07:19:43.129Z,90.17
2018-03-07T07:22:09.913Z,90.50
2018-03-07T07:24:36.619Z,84.87
2018-03-07T07:27:03.386Z,88.50
2018-03-07T07:29:30.107Z,85.87
2018-03-07T07:31:56.860Z,91.00
2018-03-07T07:34:23.554Z,78.17
2018-03-07T07:36:50.281Z,80.97
2018-03-07T07:39:17.041Z,88.07
2018-03-07T07:41:43.782Z,88.53
2018-03-07T07:44:10.521Z,84.17
2018-03-07T07:46:37.368Z,86.87
2018-03-07T07:49:04.126Z,72.70
2018-03-07T07:51:30.893Z,75.40
2018-03-07T07:54:02.349Z,100.53
2018-03-07T07:56:29.291Z,82.27
2018-03-07T07:58:56.020Z,81.50
2018-03-07T08:01:22.744Z,80.87
2018-03-07T08:03:49.508Z,74.33
2018-03-07T08:06:16.240Z,71.40
2018-03-07T08:08:43.055Z,77.77
2018-03-07T08:11:09.783Z,81.43
2018-03-07T08:13:36.566Z,76.03
2018-03-07T08:16:03.350Z,72.43
2018-03-07T08:18:30.056Z,80.60
2018-03-07T08:20:56.808Z,71.70
2018-03-07T08:23:23.544Z,72.93
2018-03-07T08:25:50.291Z,83.33
2018-03-07T08:28:17.013Z,76.90
2018-03-07T08:30:43.768Z,82.80
2018-03-07T08:33:10.497Z,79.77
2018-03-07T08:35:37.259Z,77.23
2018-03-07T08:38:04.002Z,74.47
2018-03-07T08:40:30.758Z,74.50
2018-03-07T08:42:57.498Z,80.07
2018-03-07T08:45:24.294Z,72.27
2018-03-07T08:47:51.230Z,83.07
2018-03-07T08:50:17.984Z,75.97
2018-03-07T08:52:44.714Z,82.27
2018-03-07T08:55:11.457Z,82.33
2018-03-07T08:57:38.194Z,84.77
2018-03-07T09:00:04.942Z,82.17
2018-03-07T09:02:31.687Z,83.03
2018-03-07T09:04:58.395Z,86.87
2018-03-07T09:07:25.141Z,86.80
2018-03-07T09:09:51.885Z,84.97
2018-03-07T09:12:18.602Z,80.80
2018-03-07T09:14:45.370Z,86.50
2018-03-07T09:17:12.328Z,81.50
2018-03-07T09:19:39.082Z,79.27
2018-03-07T09:22:05.846Z,77.87
2018-03-07T09:24:32.558Z,73.20
2018-03-07T09:26:59.296Z,73.97
2018-03-07T09:29:26.030Z,84.23
2018-03-07T09:31:52.827Z,87.07
2018-03-07T09:34:19.570Z,79.60
2018-03-07T09:36:46.277Z,83.60
2018-03-07T09:39:13.059Z,74.10
2018-03-07T09:41:39.824Z,68.23
2018-03-07T09:44:06.550Z,67.33
2018-03-07T09:46:33.295Z,60.67
2018-03-07T09:49:00.009Z,67.30
2018-03-07T09:51:26.779Z,66.40
2018-03-07T09:53:53.494Z,62.53
2018-03-07T09:56:20.450Z,67.43
2018-03-07T09:58:47.202Z,57.70
2018-03-07T10:01:13.936Z,84.10
2018-03-07T10:03:40.662Z,59.67
2018-03-07T10:06:07.428Z,63.83
2018-03-07T10:08:34.171Z,57.90
2018-03-07T10:11:00.938Z,56.43
2018-03-07T10:13:27.693Z,60.97
2018-03-07T10:15:54.460Z,50.90
2018-03-07T10:18:21.231Z,55.70
2018-03-07T10:20:47.953Z,57.23
2018-03-07T10:23:14.716Z,62.13
2018-03-07T10:25:41.454Z,63.97
2018-03-07T10:28:08.251Z,64.27
2018-03-07T10:30:34.996Z,57.23
2018-03-07T10:33:02.474Z,55.20
2018-03-07T10:35:29.218Z,51.57
2018-03-07T10:37:55.986Z,53.53
2018-03-07T10:40:22.715Z,50.03
2018-03-07T10:42:49.479Z,52.93
2018-03-07T10:45:16.250Z,46.57
2018-03-07T10:47:42.966Z,44.17
2018-03-07T10:50:09.690Z,48.57
2018-03-07T10:52:36.392Z,50.00
2018-03-07T10:55:03.141Z,49.83
2018-03-07T10:57:30.024Z,50.73
2018-03-07T10:59:56.746Z,50.27
2018-03-07T11:02:23.494Z,51.63
2018-03-07T11:04:50.195Z,47.43
2018-03-07T11:07:16.948Z,54.47
2018-03-07T11:09:43.670Z,53.77
2018-03-07T11:12:10.405Z,54.27
2018-03-07T11:14:37.167Z,53.33
2018-03-07T11:17:03.921Z,48.90
2018-03-07T11:19:30.665Z,48.47
2018-03-07T11:21:57.417Z,51.23
2018-03-07T11:24:24.133Z,41.53
2018-03-07T11:26:50.871Z,48.10
2018-03-07T11:29:17.577Z,45.23
2018-03-07T11:31:44.351Z,42.70
2018-03-07T11:34:11.068Z,45.47
2018-03-07T11:36:37.956Z,48.67
2018-03-07T11:39:04.695Z,48.23
2018-03-07T11:41:31.431Z,39.10
2018-03-07T11:43:58.214Z,44.37
2018-03-07T11:46:24.955Z,42.50
2018-03-07T11:48:51.664Z,44.37
2018-03-07T11:51:18.422Z,49.27
2018-03-07T11:53:45.128Z,43.60
2018-03-07T11:56:11.854Z,47.80
2018-03-07T11:58:38.604Z,42.43
2018-03-07T12:01:05.326Z,43.53
2018-03-07T12:03:32.088Z,42.63
2018-03-07T12:05:58.852Z,42.37
2018-03-07T12:08:25.610Z,39.73
2018-03-07T12:10:52.328Z,40.33
2018-03-07T12:13:19.098Z,38.00
2018-03-07T12:15:45.814Z,38.90
2018-03-07T12:18:12.519Z,38.27
2018-03-07T12:20:39.259Z,34.07
2018-03-07T12:23:06.065Z,32.30
2018-03-07T12:25:32.834Z,28.90
2018-03-07T12:27:59.546Z,31.57
2018-03-07T12:30:26.281Z,25.77
2018-03-07T12:32:53.051Z,28.83
2018-03-07T12:35:19.773Z,27.73
2018-03-07T12:37:46.528Z,21.70
2018-03-07T12:40:13.294Z,16.83
2018-03-07T12:42:40.038Z,14.30
2018-03-07T12:45:06.774Z,20.10
2018-03-07T12:47:33.557Z,23.20
2018-03-07T12:50:00.281Z,21.33
2018-03-07T12:52:27.037Z,21.07
2018-03-07T12:54:53.798Z,18.63
2018-03-07T12:57:20.542Z,16.87
2018-03-07T12:59:47.285Z,17.50
2018-03-07T13:02:14.081Z,17.53
2018-03-07T13:04:40.985Z,17.30
2018-03-07T13:07:07.748Z,16.97
2018-03-07T13:09:34.494Z,18.63
2018-03-07T13:12:01.240Z,17.27
2018-03-07T13:14:27.981Z,24.03
2018-03-07T13:16:54.760Z,20.90
2018-03-07T13:19:21.494Z,20.70
2018-03-07T13:21:48.207Z,23.70
2018-03-07T13:24:14.968Z,19.80
2018-03-07T13:26:41.710Z,21.90
2018-03-07T13:29:08.453Z,22.30
2018-03-07T13:31:35.206Z,19.97
2018-03-07T13:34:01.925Z,24.53
2018-03-07T13:36:28.679Z,26.00
2018-03-07T13:38:55.611Z,25.93
2018-03-07T13:41:22.353Z,21.40
2018-03-07T13:43:49.153Z,23.23
2018-03-07T13:46:15.881Z,22.97
2018-03-07T13:48:42.644Z,25.70
2018-03-07T13:51:09.365Z,23.70
2018-03-07T13:53:36.098Z,23.73
2018-03-07T13:56:02.812Z,23.70
2018-03-07T13:58:29.561Z,19.27
2018-03-07T14:00:56.279Z,19.60
2018-03-07T14:03:23.024Z,22.17
2018-03-07T14:05:49.775Z,22.43
2018-03-07T14:08:16.513Z,23.87
2018-03-07T14:10:43.278Z,21.13
2018-03-07T14:13:09.983Z,25.23
2018-03-07T14:15:36.725Z,24.70
2018-03-07T14:18:03.452Z,21.33
2018-03-07T14:20:30.209Z,21.20
2018-03-07T14:22:56.962Z,23.20
2018-03-07T14:25:23.700Z,22.13
2018-03-07T14:27:50.472Z,22.50
2018-03-07T14:30:17.174Z,24.57
2018-03-07T14:32:43.908Z,25.30
2018-03-07T14:35:10.654Z,24.80
2018-03-07T14:37:37.367Z,23.37
2018-03-07T14:40:04.128Z,27.93
2018-03-07T14:42:30.897Z,26.10
2018-03-07T14:44:57.620Z,24.60
2018-03-07T14:47:24.362Z,26.73
2018-03-07T14:49:51.102Z,29.93
2018-03-07T14:52:17.833Z,25.20
2018-03-07T14:54:44.574Z,25.47
2018-03-07T14:57:11.319Z,21.73
2018-03-07T14:59:38.061Z,23.73
2018-03-07T15:02:04.783Z,24.17
2018-03-07T15:04:31.510Z,21.20
2018-03-07T15:06:58.235Z,17.80
2018-03-07T15:09:25.003Z,24.83
2018-03-07T15:11:51.730Z,20.70
2018-03-07T15:14:18.427Z,19.50
2018-03-07T15:16:45.313Z,21.90
2018-03-07T15:19:12.054Z,17.93
2018-03-07T15:21:38.763Z,19.97
2018-03-07T15:24:05.523Z,20.83
2018-03-07T15:26:32.217Z,25.90
2018-03-07T15:28:58.971Z,19.80
2018-03-07T15:31:25.697Z,26.17
2018-03-07T15:33:52.401Z,23.53
2018-03-07T15:36:19.170Z,20.23
2018-03-07T15:38:45.883Z,17.23
2018-03-07T15:41:12.594Z,16.53
2018-03-07T15:43:39.339Z,14.50
2018-03-07T15:46:06.063Z,20.60
2018-03-07T15:48:32.950Z,13.87
2018-03-07T15:50:59.770Z,18.83
2018-03-07T15:53:26.492Z,19.83
2018-03-07T15:55:53.231Z,18.40
2018-03-07T15:58:19.971Z,18.87
2018-03-07T16:00:46.714Z,25.00
2018-03-07T16:03:13.426Z,23.80
2018-03-07T16:05:40.132Z,19.83
2018-03-07T16:08:06.857Z,16.73
2018-03-07T16:10:33.595Z,17.97
2018-03-07T16:13:00.357Z,20.90
2018-03-07T16:15:27.074Z,19.77
2018-03-07T16:17:53.848Z,18.27
2018-03-07T16:20:20.618Z,25.87
2018-03-07T16:22:47.357Z,19.93
2018-03-07T16:25:14.120Z,18.60
2018-03-07T16:27:40.839Z,21.17
2018-03-07T16:30:07.575Z,25.83
2018-03-07T16:32:34.364Z,18.33
2018-03-07T16:35:01.157Z,24.30
2018-03-07T16:37:27.924Z,22.10
2018-03-07T16:39:54.656Z,18.67
2018-03-07T16:42:21.441Z,17.57
2018-03-07T16:44:48.176Z,23.63
2018-03-07T16:47:14.930Z,24.80
2018-03-07T16:49:41.697Z,25.30
2018-03-07T16:52:08.438Z,24.10
2018-03-07T16:54:35.185Z,32.33
2018-03-07T16:57:01.926Z,23.03
2018-03-07T16:59:28.663Z,21.47
2018-03-07T17:01:55.413Z,21.17
2018-03-07T17:04:22.150Z,27.23
2018-03-07T17:06:48.915Z,25.87
2018-03-07T17:09:15.661Z,24.27
2018-03-07T17:11:42.404Z,23.87
2018-03-07T17:14:09.115Z,24.67
2018-03-07T17:16:35.857Z,27.30
2018-03-07T17:19:02.795Z,29.03
2018-03-07T17:21:29.519Z,28.90
2018-03-07T17:23:56.358Z,33.73
2018-03-07T17:26:23.091Z,38.90
2018-03-07T17:28:49.949Z,37.50
2018-03-07T17:31:16.678Z,35.20
2018-03-07T17:33:43.422Z,31.60
2018-03-07T17:36:10.211Z,34.77
2018-03-07T17:38:36.934Z,33.80
2018-03-07T17:41:03.669Z,30.40
2018-03-07T17:43:30.410Z,29.63
2018-03-07T17:45:57.129Z,30.80
2018-03-07T17:48:23.867Z,31.87
2018-03-07T17:50:50.574Z,26.93
2018-03-07T17:53:17.322Z,30.80
2018-03-07T17:55:44.085Z,34.10
2018-03-07T17:58:10.802Z,33.93
2018-03-07T18:00:37.561Z,37.40
2018-03-07T18:03:04.271Z,29.53
2018-03-07T18:05:31.045Z,31.53
2018-03-07T18:07:57.776Z,32.40
2018-03-07T18:10:24.508Z,32.70
2018-03-07T18:12:51.304Z,28.47
2018-03-07T18:15:18.037Z,29.90
2018-03-07T18:17:44.795Z,31.30
2018-03-07T18:20:11.518Z,34.10
2018-03-07T18:22:38.269Z,28.73
2018-03-07T18:25:05.036Z,28.80
2018-03-07T18:27:31.774Z,30.20
2018-03-07T18:29:58.533Z,27.10
2018-03-07T18:32:25.264Z,37.23
2018-03-07T18:34:52.039Z,36.30
2018-03-07T18:37:18.770Z,36.30
2018-03-07T18:39:45.486Z,32.57
2018-03-07T18:42:12.309Z,35.33
2018-03-07T18:44:39.083Z,37.20
2018-03-07T18:47:05.825Z,33.90
2018-03-07T18:49:32.614Z,30.20
2018-03-07T18:51:59.366Z,30.70
2018-03-07T18:54:26.152Z,35.87
2018-03-07T18:56:52.906Z,32.30
2018-03-07T18:59:19.675Z,35.20
2018-03-07T19:01:47.125Z,32.77
2018-03-07T19:04:13.900Z,34.47
2018-03-07T19:06:40.696Z,29.87
2018-03-07T19:09:07.455Z,29.97
2018-03-07T19:11:34.189Z,29.93
2018-03-07T19:14:00.950Z,35.00
2018-03-07T19:16:28.271Z,33.20
2018-03-07T19:18:56.231Z,33.07
2018-03-07T19:21:23.012Z,30.63
2018-03-07T19:23:50.259Z,32.57
2018-03-07T19:26:17.019Z,34.70
2018-03-07T19:28:43.858Z,29.13
2018-03-07T19:31:10.625Z,35.90
2018-03-07T19:33:37.386Z,31.77
2018-03-07T19:36:04.175Z,35.13
2018-03-07T19:38:30.946Z,37.43
2018-03-07T19:41:01.601Z,35.87
2018-03-07T19:43:28.398Z,32.00
2018-03-07T19:45:56.876Z,30.07
2018-03-07T19:48:23.633Z,33.97
2018-03-07T19:50:50.432Z,38.50
2018-03-07T19:53:17.195Z,36.90
2018-03-07T19:55:43.966Z,35.50
2018-03-07T19:58:10.742Z,31.77
2018-03-07T20:00:38.447Z,32.67
2018-03-07T20:03:06.067Z,35.57
2018-03-07T20:05:32.819Z,38.53
2018-03-07T20:07:59.578Z,33.67
2018-03-07T20:10:26.444Z,34.47
2018-03-07T20:12:53.214Z,37.63
2018-03-07T20:15:19.948Z,38.07
2018-03-07T20:17:46.868Z,38.60
2018-03-07T20:20:13.921Z,37.83
2018-03-07T20:22:40.672Z,37.70
2018-03-07T20:25:07.449Z,37.83
2018-03-07T20:27:34.250Z,38.43
2018-03-07T20:30:01.654Z,42.27
2018-03-07T20:32:28.466Z,37.33
2018-03-07T20:34:55.240Z,32.13
2018-03-07T20:37:22.054Z,37.50
2018-03-07T20:39:48.824Z,37.40
2018-03-07T20:42:15.612Z,39.87
2018-03-07T20:44:42.439Z,38.33
2018-03-07T20:47:09.218Z,43.57
2018-03-07T20:49:36.017Z,43.23
2018-03-07T20:52:02.888Z,38.77
2018-03-07T20:54:31.446Z,35.00
2018-03-07T20:56:58.193Z,39.90
2018-03-07T20:59:24.971Z,40.33
2018-03-07T21:01:51.723Z,34.90
2018-03-07T21:04:18.471Z,39.37
2018-03-07T21:06:45.223Z,33.83
2018-03-07T21:09:11.970Z,45.07
2018-03-07T21:11:38.782Z,36.73
2018-03-07T21:14:05.500Z,36.47
2018-03-07T21:16:32.218Z,34.70
2018-03-07T21:18:58.997Z,35.87
2018-03-07T21:21:25.712Z,38.57
2018-03-07T21:23:52.502Z,35.23
2018-03-07T21:26:19.253Z,34.40
2018-03-07T21:28:46.168Z,38.70
2018-03-07T21:31:12.908Z,37.67
2018-03-07T21:33:39.619Z,36.57
2018-03-07T21:36:06.393Z,38.17
2018-03-07T21:38:35.079Z,39.20
2018-03-07T21:41:01.822Z,37.20
2018-03-07T21:43:28.537Z,47.40
2018-03-07T21:45:55.247Z,41.70
2018-03-07T21:48:22.000Z,48.37
2018-03-07T21:50:48.714Z,40.47
2018-03-07T21:53:15.474Z,37.30
2018-03-07T21:55:42.186Z,39.30
2018-03-07T21:58:08.919Z,34.33
2018-03-07T22:00:35.665Z,43.23
2018-03-07T22:03:02.450Z,42.27
2018-03-07T22:05:29.220Z,39.27
2018-03-07T22:08:01.477Z,39.47
2018-03-07T22:10:37.579Z,41.33
2018-03-07T22:13:04.333Z,37.43
2018-03-07T22:15:31.042Z,38.90
2018-03-07T22:17:57.802Z,39.90
2018-03-07T22:20:24.538Z,33.63
2018-03-07T22:22:51.484Z,36.47
2018-03-07T22:25:18.225Z,38.57
2018-03-07T22:27:44.933Z,34.63
2018-03-07T22:30:11.695Z,41.10
2018-03-07T22:32:38.425Z,39.63
2018-03-07T22:35:05.140Z,38.17
2018-03-07T22:37:31.885Z,41.20
2018-03-07T22:39:58.603Z,38.37
2018-03-07T22:42:25.352Z,44.00
2018-03-07T22:44:52.093Z,39.87
2018-03-07T22:47:18.827Z,35.30
2018-03-07T22:49:45.569Z,35.17
2018-03-07T22:52:12.297Z,37.73
2018-03-07T22:54:39.047Z,44.90
2018-03-07T22:57:05.795Z,41.07
2018-03-07T22:59:32.512Z,41.00
2018-03-07T23:01:59.379Z,34.40
2018-03-07T23:04:26.304Z,35.40
2018-03-07T23:06:53.052Z,19.47
2018-03-07T23:09:19.801Z,15.23
2018-03-07T23:11:46.521Z,11.93
2018-03-07T23:14:13.251Z,11.63
2018-03-07T23:16:39.987Z,11.10
2018-03-07T23:19:06.763Z,7.70
2018-03-07T23:21:33.479Z,8.63
2018-03-07T23:24:00.237Z,8.53
2018-03-07T23:26:26.966Z,4.83
2018-03-07T23:28:53.740Z,6.00
2018-03-07T23:31:20.475Z,6.80
2018-03-07T23:33:47.194Z,3.53
2018-03-07T23:36:13.934Z,3.93
2018-03-07T23:38:40.658Z,2.97
2018-03-07T23:41:07.364Z,5.17
2018-03-07T23:43:34.120Z,2.40
2018-03-07T23:46:00.924Z,1.77
2018-03-07T23:48:27.643Z,1.50
2018-03-07T23:50:54.371Z,1.87
2018-03-07T23:53:21.087Z,1.03
2018-03-07T23:55:47.851Z,1.30
2018-03-07T23:58:14.578Z,2.20
